Terminal Aerodrome Forecast
Issued by NWS

Home | Current Version | Previous Version | Text Only | Print | Product List | Glossary On
Versions: 1 2 3 4 5 6 7 8 9 10 11 12 13 14 15 16 17 18 19 20 21 22 23 24
000
FTUS41 KOKX 010234 AAA
TAFGON
TAF AMD
KGON 010234Z 0103/0124 27005KT P6SM SCT250
     FM010700 34004KT P6SM FEW050
     FM011400 13006KT P6SM FEW050
     FM011700 18007KT P6SM FEW050=

USA.gov is the U.S. government's official web portal to all federal, state and local government web resources and services.